X  CloseMetar Aviation Weather Data     EGGD Bristol International

Temperature

10°C Temperature

8°C Dewpoint

88% Humidity



Wind

27 KM/H

17 MPH

 8 M/S

15 KTS



220°
South West
Current Conditions

Overcast Overcast
Pressure 1009.92 (hPa) - 29.82 (in)
Visibility 6.2 (mi) - 10 (km)
Airport
Airport-code EGGD

Location Bristol International 9 (mi)

Metar:
EGGD 240650Z AUTO 22015KT 9999 OVC011 10/08 Q1010

Time: 2020-02-24 06:50